Time;durP1;ratioP1;P1;durP2;ratioP2;P2;SDS_P1;SDS_P2;PMS_P1;PMS_P2;Temp;Humidity;BMP_temperature;BMP_pressure;BME280_temperature;BME280_humidity;BME280_pressure;Samples;Min_cycle;Max_cycle;Signal;HPM_P1;HPM_P2
2022/05/10 00:00:11;;;;;;;;;;;;;;;21.61;27.08;98440.13;4861042;29;1009;-75
2022/05/10 00:02:40;;;;;;;;;;;;;;;21.66;26.96;98433.94;4860906;29;1903;-75
2022/05/10 00:05:05;;;;;;;;;;;;;;;21.42;27.63;98443.72;4857802;29;1007;-75
2022/05/10 00:07:32;;;;;;;;;;;;;;;21.79;26.92;98434.88;4856544;29;956;-76
2022/05/10 00:09:57;;;;;;;;;;;;;;;22.04;26.20;98433.56;4897483;29;1290;-75
2022/05/10 00:12:23;;;;;;;;;;;;;;;21.89;26.35;98432.28;4942158;28;999;-75
2022/05/10 00:14:48;;;;;;;;;;;;;;;21.62;26.57;98441.72;4969593;28;1185;-75
2022/05/10 00:17:20;;;;;;;;;;;;;;;21.47;26.76;98435.53;4974428;28;1127;-76
2022/05/10 00:19:46;;;;;;;;;;;;;;;21.39;27.17;98439.72;4935888;29;969;-76
2022/05/10 00:22:11;;;;;;;;;;;;;;;21.91;26.48;98429.78;4935893;29;1906;-76
2022/05/10 00:24:36;;;;;;;;;;;;;;;21.95;26.53;98427.69;4921586;29;1146;-74
2022/05/10 00:27:02;;;;;;;;;;;;;;;22.01;26.45;98417.44;4972851;28;1050;-76
2022/05/10 00:29:28;;;;;;;;;;;;;;;21.85;26.36;98410.47;4997215;28;1178;-76
2022/05/10 00:31:55;;;;;;;;;;;;;;;21.56;26.84;98415.13;4965043;28;1077;-75
2022/05/10 00:34:20;;;;;;;;;;;;;;;21.39;27.10;98405.75;4958050;29;1041;-76
2022/05/10 00:36:46;;;;;;;;;;;;;;;21.40;27.67;98400.88;4958356;28;958;-76
2022/05/10 00:39:12;;;;;;;;;;;;;;;21.85;26.60;98404.81;4958123;28;951;-75
2022/05/10 00:41:43;;;;;;;;;;;;;;;22.13;26.13;98399.81;4958080;28;1966;-75
2022/05/10 00:44:17;;;;;;;;;;;;;;;22.23;26.24;98403.63;4958496;29;984;-75
2022/05/10 00:46:45;;;;;;;;;;;;;;;21.92;26.33;98388.91;4942136;28;1048;-75
2022/05/10 00:49:13;;;;;;;;;;;;;;;21.68;26.71;98403.16;4958437;29;957;-75
2022/05/10 00:51:38;;;;;;;;;;;;;;;21.53;26.86;98401.84;4955209;29;1110;-76
2022/05/10 00:54:04;;;;;;;;;;;;;;;21.49;26.98;98392.63;4958328;29;936;-76
2022/05/10 00:56:48;;;;;;;;;;;;;;;21.61;27.24;98394.81;4938801;29;906;-75
2022/05/10 00:59:19;;;;;;;;;;;;;;;22.04;26.57;98388.22;4922818;29;1098;-75
2022/05/10 01:01:45;;;;;;;;;;;;;;;22.19;26.14;98392.38;4919940;29;1971;-75
2022/05/10 01:04:16;;;;;;;;;;;;;;;21.58;26.91;98395.66;4919684;29;1156;-75
2022/05/10 01:06:58;;;;;;;;;;;;;;;21.34;27.44;98383.59;4919809;29;974;-75
2022/05/10 01:09:44;;;;;;;;;;;;;;;21.30;27.53;98392.19;4919809;29;1002;-76
2022/05/10 01:12:10;;;;;;;;;;;;;;;21.76;26.77;98389.63;4956855;28;964;-76
2022/05/10 01:14:37;;;;;;;;;;;;;;;22.08;26.46;98388.94;4977108;28;988;-75
2022/05/10 01:17:02;;;;;;;;;;;;;;;21.83;26.87;98395.97;4961057;28;1166;-76
2022/05/10 01:19:28;;;;;;;;;;;;;;;21.70;26.94;98383.69;4976964;28;951;-76
2022/05/10 01:22:05;;;;;;;;;;;;;;;21.44;27.43;98390.28;4973405;28;1902;-76
2022/05/10 01:24:33;;;;;;;;;;;;;;;21.45;27.50;98386.22;4957746;29;1030;-76
2022/05/10 01:27:10;;;;;;;;;;;;;;;21.88;26.94;98385.34;4973781;28;1129;-76
2022/05/10 01:29:40;;;;;;;;;;;;;;;22.23;26.35;98384.59;4957605;29;1012;-75
2022/05/10 01:34:52;;;;;;;;;;;;;;;21.41;27.81;98379.84;5010496;28;999;-76
2022/05/10 01:37:18;;;;;;;;;;;;;;;21.60;27.29;98381.88;4976287;28;1149;-76
2022/05/10 01:39:46;;;;;;;;;;;;;;;21.77;27.57;98383.53;4957238;28;1202;-76
2022/05/10 01:42:16;;;;;;;;;;;;;;;22.02;27.07;98380.19;4959220;28;1965;-75
2022/05/10 01:44:44;;;;;;;;;;;;;;;21.93;27.20;98376.34;4976866;28;977;-75
2022/05/10 01:47:13;;;;;;;;;;;;;;;21.53;27.53;98376.34;4976488;28;1020;-76
2022/05/10 01:49:43;;;;;;;;;;;;;;;21.59;27.37;98378.25;4957256;29;1107;-76
2022/05/10 01:52:10;;;;;;;;;;;;;;;21.84;27.44;98394.72;4956992;29;949;-75
2022/05/10 01:54:41;;;;;;;;;;;;;;;22.09;27.31;98379.22;4957441;28;1001;-76
2022/05/10 01:57:10;;;;;;;;;;;;;;;22.01;27.24;98383.44;4957318;29;951;-76
2022/05/10 01:59:37;;;;;;;;;;;;;;;21.85;27.37;98382.13;4956920;29;1082;-76
2022/05/10 02:02:03;;;;;;;;;;;;;;;21.66;27.41;98373.66;4957038;29;1906;-76
2022/05/10 02:04:29;;;;;;;;;;;;;;;21.58;27.62;98375.84;4957045;29;1085;-76
2022/05/10 02:06:56;;;;;;;;;;;;;;;21.50;28.18;98371.56;4956960;28;975;-75
2022/05/10 02:09:24;;;;;;;;;;;;;;;21.54;27.91;98372.28;4956902;29;1115;-76
2022/05/10 02:11:53;;;;;;;;;;;;;;;21.46;28.23;98370.84;4994039;28;997;-76
2022/05/10 02:14:33;;;;;;;;;;;;;;;21.33;28.23;98373.50;4979016;28;938;-77
2022/05/10 02:17:04;;;;;;;;;;;;;;;21.88;27.84;98369.16;5015041;28;1017;-76
2022/05/10 02:19:32;;;;;;;;;;;;;;;22.13;27.24;98360.13;5014857;28;1049;-76
2022/05/10 02:21:58;;;;;;;;;;;;;;;21.91;27.49;98361.78;5015243;28;2040;-76
2022/05/10 02:24:25;;;;;;;;;;;;;;;21.62;28.12;98368.09;4998240;28;1071;-76
2022/05/10 02:26:52;;;;;;;;;;;;;;;21.64;28.15;98359.16;5015035;28;955;-76
2022/05/10 02:29:28;;;;;;;;;;;;;;;21.44;28.46;98361.97;4998054;28;996;-76
2022/05/10 02:34:42;;;;;;;;;;;;;;;21.44;28.86;98361.97;4981226;28;1064;-76
2022/05/10 02:37:08;;;;;;;;;;;;;;;21.87;27.77;98358.25;4994943;28;1134;-77
2022/05/10 02:39:33;;;;;;;;;;;;;;;22.15;27.36;98360.47;4956141;29;1211;-76
2022/05/10 02:41:59;;;;;;;;;;;;;;;21.76;27.60;98356.47;4898964;29;1910;-76
2022/05/10 02:44:25;;;;;;;;;;;;;;;21.67;27.77;98358.28;4898643;29;982;-76
2022/05/10 02:46:50;;;;;;;;;;;;;;;21.61;28.14;98360.03;4898352;29;1091;-76
2022/05/10 02:49:17;;;;;;;;;;;;;;;21.47;28.21;98361.91;4899410;29;986;-75
2022/05/10 02:51:42;;;;;;;;;;;;;;;21.57;28.18;98360.91;4898760;29;1019;-75
2022/05/10 02:54:08;;;;;;;;;;;;;;;21.93;27.86;98362.16;4898988;29;1049;-76
2022/05/10 02:56:33;;;;;;;;;;;;;;;22.03;27.53;98359.09;4898647;29;936;-76
2022/05/10 02:59:09;;;;;;;;;;;;;;;22.16;27.46;98359.22;4936452;29;967;-76
2022/05/10 03:01:52;;;;;;;;;;;;;;;21.84;27.92;98357.88;4921101;29;1976;-76
2022/05/10 03:04:17;;;;;;;;;;;;;;;21.66;28.00;98362.31;4917512;29;1034;-76
2022/05/10 03:06:44;;;;;;;;;;;;;;;21.39;28.39;98359.66;4917318;29;1042;-76
2022/05/10 03:09:10;;;;;;;;;;;;;;;21.43;28.32;98357.56;4917339;29;1028;-76
2022/05/10 03:11:35;;;;;;;;;;;;;;;21.35;28.57;98364.59;4917406;29;979;-76
2022/05/10 03:14:01;;;;;;;;;;;;;;;21.35;28.36;98361.75;4917423;29;1034;-76
2022/05/10 03:16:26;;;;;;;;;;;;;;;21.65;28.35;98361.53;4927596;29;1020;-76
2022/05/10 03:18:52;;;;;;;;;;;;;;;21.85;27.83;98365.16;4960765;28;935;-75
2022/05/10 03:21:18;;;;;;;;;;;;;;;22.15;27.18;98366.13;4974987;28;1969;-76
2022/05/10 03:23:43;;;;;;;;;;;;;;;21.83;27.64;98372.50;4974243;28;1038;-76
2022/05/10 03:26:09;;;;;;;;;;;;;;;21.63;28.31;98366.84;4955645;29;985;-76
2022/05/10 03:28:35;;;;;;;;;;;;;;;21.43;28.26;98378.16;4939551;29;945;-75
2022/05/10 03:31:00;;;;;;;;;;;;;;;21.51;28.15;98376.00;4991516;28;1188;-76
2022/05/10 03:33:26;;;;;;;;;;;;;;;21.52;28.26;98381.22;4993836;28;985;-76
2022/05/10 03:35:52;;;;;;;;;;;;;;;21.70;28.25;98375.19;5023017;28;1004;-77
2022/05/10 03:38:17;;;;;;;;;;;;;;;21.95;27.84;98385.97;5033509;28;1090;-77
2022/05/10 03:40:43;;;;;;;;;;;;;;;21.89;27.61;98386.94;5030379;28;2084;-77
2022/05/10 03:43:09;;;;;;;;;;;;;;;21.61;27.92;98383.50;5032936;28;1977;-77
2022/05/10 03:45:34;;;;;;;;;;;;;;;21.54;28.30;98394.94;5033283;28;1106;-76
2022/05/10 03:48:00;;;;;;;;;;;;;;;21.61;28.53;98383.50;5033550;28;959;-77
2022/05/10 03:50:25;;;;;;;;;;;;;;;21.87;27.86;98386.59;5033213;28;1048;-77
2022/05/10 03:52:51;;;;;;;;;;;;;;;22.04;27.51;98382.56;5033394;28;1067;-76
2022/05/10 03:55:17;;;;;;;;;;;;;;;21.81;27.63;98387.09;5033390;28;956;-77
2022/05/10 03:57:44;;;;;;;;;;;;;;;21.62;27.86;98385.06;5033633;28;1465;-77
2022/05/10 04:00:11;;;;;;;;;;;;;;;21.72;27.52;98394.59;5037354;28;970;-76
2022/05/10 04:02:38;;;;;;;;;;;;;;;21.70;27.41;98391.38;5036064;28;1977;-77
2022/05/10 04:05:04;;;;;;;;;;;;;;;21.97;27.83;98394.06;5039697;28;910;-77
2022/05/10 04:07:30;;;;;;;;;;;;;;;22.16;27.44;98384.72;5037365;28;1492;-76
2022/05/10 04:09:55;;;;;;;;;;;;;;;21.81;27.81;98383.44;5037231;28;1030;-76
2022/05/10 04:12:21;;;;;;;;;;;;;;;21.65;27.83;98387.03;5039618;28;853;-77
2022/05/10 04:14:46;;;;;;;;;;;;;;;21.58;28.01;98390.81;5039392;28;1140;-77
2022/05/10 04:17:11;;;;;;;;;;;;;;;21.56;28.01;98393.28;5039374;28;951;-77
2022/05/10 04:19:37;;;;;;;;;;;;;;;21.65;28.39;98394.72;5039462;28;854;-77
2022/05/10 04:22:03;;;;;;;;;;;;;;;21.95;28.17;98402.19;5038611;28;1906;-77
2022/05/10 04:24:28;;;;;;;;;;;;;;;22.23;27.42;98403.63;5039875;28;969;-76
2022/05/10 04:26:53;;;;;;;;;;;;;;;21.90;27.97;98408.38;5018345;28;1550;-77
2022/05/10 04:29:19;;;;;;;;;;;;;;;21.78;28.20;98412.66;5038045;28;1791;-76
2022/05/10 04:31:44;;;;;;;;;;;;;;;21.74;27.94;98404.22;5039390;28;966;-76
2022/05/10 04:34:10;;;;;;;;;;;;;;;21.56;28.33;98409.47;5039374;28;1905;-77
2022/05/10 04:36:35;;;;;;;;;;;;;;;21.43;28.80;98426.28;5038864;28;1061;-76
2022/05/10 04:39:01;;;;;;;;;;;;;;;21.69;28.79;98416.06;5019927;28;955;-77
2022/05/10 04:41:30;;;;;;;;;;;;;;;22.04;28.02;98422.22;5019272;28;1971;-77
2022/05/10 04:43:58;;;;;;;;;;;;;;;21.81;28.39;98421.09;5019255;28;895;-77
2022/05/10 04:46:23;;;;;;;;;;;;;;;21.75;28.33;98420.00;5051784;28;2401;-76
2022/05/10 04:48:49;;;;;;;;;;;;;;;21.68;28.57;98410.84;5036446;28;1018;-76
2022/05/10 04:51:14;;;;;;;;;;;;;;;21.52;28.91;98414.41;5036364;28;1065;-77
2022/05/10 04:53:40;;;;;;;;;;;;;;;21.50;28.81;98422.53;5035869;28;998;-77
2022/05/10 04:56:05;;;;;;;;;;;;;;;21.90;28.35;98422.53;5036268;28;954;-76
2022/05/10 04:58:31;;;;;;;;;;;;;;;22.10;28.06;98420.47;5036432;28;978;-77
2022/05/10 05:00:56;;;;;;;;;;;;;;;21.89;28.22;98426.59;5033982;28;2407;-77
2022/05/10 05:03:22;;;;;;;;;;;;;;;21.72;28.74;98429.38;5019586;28;1902;-77
2022/05/10 05:05:47;;;;;;;;;;;;;;;21.60;28.81;98438.50;5036041;28;990;-76
2022/05/10 05:08:13;;;;;;;;;;;;;;;21.59;28.78;98439.75;5034303;28;2126;-77
2022/05/10 05:10:38;;;;;;;;;;;;;;;21.98;28.50;98435.31;5034944;28;1940;-77
2022/05/10 05:13:03;;;;;;;;;;;;;;;22.16;28.23;98429.28;5034274;28;1024;-76
2022/05/10 05:15:29;;;;;;;;;;;;;;;22.08;28.33;98431.47;5036073;28;1044;-77
2022/05/10 05:17:54;;;;;;;;;;;;;;;21.78;28.67;98433.28;5020510;28;1390;-77
2022/05/10 05:20:20;;;;;;;;;;;;;;;21.83;28.49;98427.13;5032048;28;938;-77
2022/05/10 05:22:48;;;;;;;;;;;;;;;21.79;28.78;98434.09;5038252;28;1981;-77
2022/05/10 05:25:13;;;;;;;;;;;;;;;21.73;28.54;98439.47;5038348;28;982;-77
2022/05/10 05:27:39;;;;;;;;;;;;;;;21.51;29.08;98441.13;5038021;28;888;-76
2022/05/10 05:30:04;;;;;;;;;;;;;;;21.62;29.01;98441.72;5038166;28;1086;-77
2022/05/10 05:32:32;;;;;;;;;;;;;;;21.59;29.29;98442.56;5037966;28;975;-77
2022/05/10 05:34:57;;;;;;;;;;;;;;;21.56;29.26;98449.13;5014528;28;2061;-77
2022/05/10 05:37:35;;;;;;;;;;;;;;;21.54;29.06;98440.25;4999307;28;1047;-77
2022/05/10 05:40:01;;;;;;;;;;;;;;;21.62;29.48;98447.38;5014240;28;2140;-77
2022/05/10 05:42:27;;;;;;;;;;;;;;;21.91;29.20;98441.13;5015682;28;1905;-77
2022/05/10 05:44:52;;;;;;;;;;;;;;;22.02;28.80;98447.34;5014997;28;1776;-77
2022/05/10 05:47:18;;;;;;;;;;;;;;;21.75;29.10;98442.66;5015556;28;1067;-77
2022/05/10 05:49:43;;;;;;;;;;;;;;;21.64;28.82;98450.56;5015877;28;892;-77
2022/05/10 05:52:09;;;;;;;;;;;;;;;21.45;29.27;98459.81;5015812;28;970;-77
2022/05/10 05:54:34;;;;;;;;;;;;;;;21.41;29.40;98462.75;5015328;28;1075;-77
2022/05/10 05:57:03;;;;;;;;;;;;;;;21.64;29.64;98461.88;5015837;28;1935;-77
2022/05/10 05:59:29;;;;;;;;;;;;;;;22.05;28.84;98455.00;5015284;28;1021;-77
2022/05/10 06:01:54;;;;;;;;;;;;;;;21.96;29.02;98455.56;5014795;28;1960;-77
2022/05/10 06:04:20;;;;;;;;;;;;;;;21.82;28.98;98456.69;4976276;28;994;-76
2022/05/10 06:06:45;;;;;;;;;;;;;;;21.84;28.90;98459.88;5008866;28;953;-77
2022/05/10 06:09:11;;;;;;;;;;;;;;;21.78;28.72;98461.63;5015387;28;992;-76
2022/05/10 06:11:36;;;;;;;;;;;;;;;21.69;28.91;98457.75;5015324;28;986;-77
2022/05/10 06:14:02;;;;;;;;;;;;;;;21.54;29.44;98468.56;5015507;28;951;-77
2022/05/10 06:16:28;;;;;;;;;;;;;;;21.72;29.76;98463.38;4998126;28;2235;-76
2022/05/10 06:18:53;;;;;;;;;;;;;;;21.84;29.27;98471.19;5010126;28;1924;-76
2022/05/10 06:21:18;;;;;;;;;;;;;;;22.03;28.56;98463.16;5014020;28;1914;-76
2022/05/10 06:23:44;;;;;;;;;;;;;;;21.78;29.20;98460.81;5014808;28;1060;-77
2022/05/10 06:26:09;;;;;;;;;;;;;;;21.67;29.17;98472.38;5015162;28;1032;-77
2022/05/10 06:28:35;;;;;;;;;;;;;;;21.56;29.57;98477.44;5013890;28;1970;-77
2022/05/10 06:31:02;;;;;;;;;;;;;;;21.55;29.66;98479.47;5014787;28;1724;-77
2022/05/10 06:33:28;;;;;;;;;;;;;;;21.55;29.58;98475.81;5014494;28;1945;-76
2022/05/10 06:35:53;;;;;;;;;;;;;;;21.55;29.50;98475.81;5014533;28;939;-77
2022/05/10 06:38:27;;;;;;;;;;;;;;;21.49;29.72;98480.38;5014616;28;1006;-76
2022/05/10 06:41:03;;;;;;;;;;;;;;;21.55;29.73;98476.63;5000570;28;1252;-76
2022/05/10 06:43:29;;;;;;;;;;;;;;;21.58;29.55;98478.59;5033871;28;1906;-77
2022/05/10 06:46:01;;;;;;;;;;;;;;;21.65;29.67;98488.97;4994736;28;1665;-77
2022/05/10 06:48:26;;;;;;;;;;;;;;;21.84;29.33;98476.88;4994859;28;999;-77
2022/05/10 06:50:52;;;;;;;;;;;;;;;22.20;29.03;98479.00;4994904;28;981;-77
2022/05/10 06:53:18;;;;;;;;;;;;;;;21.89;29.00;98467.06;4994208;28;936;-77
2022/05/10 06:55:43;;;;;;;;;;;;;;;21.58;29.60;98480.63;4994298;28;1030;-77
2022/05/10 06:58:09;;;;;;;;;;;;;;;21.37;29.70;98478.19;4994672;28;1046;-77
2022/05/10 07:00:37;;;;;;;;;;;;;;;21.40;29.46;98480.13;4995174;28;997;-77
2022/05/10 07:03:14;;;;;;;;;;;;;;;21.50;29.48;98479.16;4993563;28;2184;-77
2022/05/10 07:05:40;;;;;;;;;;;;;;;21.62;29.40;98481.34;4994332;28;1071;-77
2022/05/10 07:08:05;;;;;;;;;;;;;;;21.76;28.99;98486.75;4994450;28;1072;-76
2022/05/10 07:10:31;;;;;;;;;;;;;;;22.12;28.51;98483.19;4993344;28;2156;-76
2022/05/10 07:12:58;;;;;;;;;;;;;;;21.82;28.86;98496.34;4994525;28;932;-77
2022/05/10 07:15:23;;;;;;;;;;;;;;;21.69;29.08;98486.88;5012465;28;1028;-76
2022/05/10 07:17:49;;;;;;;;;;;;;;;21.69;29.00;98481.22;5014222;28;965;-77
2022/05/10 07:20:14;;;;;;;;;;;;;;;21.60;29.10;98495.13;5014400;28;1196;-77
2022/05/10 07:22:40;;;;;;;;;;;;;;;21.76;28.80;98492.41;4997941;28;1906;-77
2022/05/10 07:25:06;;;;;;;;;;;;;;;22.18;28.48;98484.31;5011865;28;2202;-76
2022/05/10 07:27:31;;;;;;;;;;;;;;;21.79;28.56;98485.88;5029871;28;1152;-77
2022/05/10 07:29:57;;;;;;;;;;;;;;;21.76;28.89;98491.59;5013995;28;961;-77
2022/05/10 07:32:24;;;;;;;;;;;;;;;21.58;28.72;98497.63;4997125;28;1019;-77
2022/05/10 07:34:49;;;;;;;;;;;;;;;21.56;28.89;98497.25;5013823;28;985;-76
2022/05/10 07:37:15;;;;;;;;;;;;;;;21.53;28.70;98498.13;5013117;28;2115;-77
2022/05/10 07:39:40;;;;;;;;;;;;;;;21.81;28.89;98494.75;5013868;28;1756;-77
2022/05/10 07:42:06;;;;;;;;;;;;;;;21.88;28.37;98498.66;5013681;28;1914;-77
2022/05/10 07:44:33;;;;;;;;;;;;;;;21.89;28.37;98500.25;5014200;28;1004;-76
2022/05/10 07:46:58;;;;;;;;;;;;;;;21.77;28.74;98499.69;5014550;28;925;-76
2022/05/10 07:49:24;;;;;;;;;;;;;;;21.65;28.65;98497.47;5013909;28;928;-77
2022/05/10 07:51:49;;;;;;;;;;;;;;;21.46;28.78;98492.59;5014263;28;1001;-77
2022/05/10 07:54:15;;;;;;;;;;;;;;;21.48;28.78;98501.44;5012880;28;2285;-77
2022/05/10 07:56:41;;;;;;;;;;;;;;;21.28;29.29;98499.31;5014188;28;929;-77
2022/05/10 07:59:06;;;;;;;;;;;;;;;21.42;29.36;98494.69;5015778;28;981;-77
2022/05/10 08:01:32;;;;;;;;;;;;;;;21.84;28.37;98498.72;5036246;28;1906;-77
2022/05/10 08:03:57;;;;;;;;;;;;;;;22.00;27.97;98500.84;5036386;28;1221;-77
2022/05/10 08:06:23;;;;;;;;;;;;;;;21.75;28.27;98501.34;5035337;28;2063;-76
2022/05/10 08:08:49;;;;;;;;;;;;;;;21.54;28.83;98500.50;5036207;28;891;-77
2022/05/10 08:11:14;;;;;;;;;;;;;;;21.46;28.72;98489.75;5032231;28;2069;-77
2022/05/10 08:13:41;;;;;;;;;;;;;;;21.55;28.76;98499.28;5035338;28;1918;-76
2022/05/10 08:16:08;;;;;;;;;;;;;;;21.54;28.46;98492.00;5035993;28;956;-77
2022/05/10 08:18:35;;;;;;;;;;;;;;;21.85;28.30;98489.78;5013339;28;1104;-77
2022/05/10 08:21:00;;;;;;;;;;;;;;;22.01;28.08;98488.25;5013431;28;979;-76
2022/05/10 08:23:27;;;;;;;;;;;;;;;21.89;28.04;98488.94;5011656;28;2014;-76
2022/05/10 08:25:54;;;;;;;;;;;;;;;21.74;28.11;98489.22;5013564;28;997;-77
2022/05/10 08:28:20;;;;;;;;;;;;;;;21.60;28.50;98500.78;5013844;28;1070;-77
2022/05/10 08:30:46;;;;;;;;;;;;;;;21.21;29.30;98496.63;5013559;28;1016;-77
2022/05/10 08:33:41;;;;;;;;;;;;;;;21.28;28.88;98496.50;5013178;28;911;-77
2022/05/10 08:39:40;;;;;;;;;;;;;;;21.73;28.20;98498.94;4934924;29;2109;-77
2022/05/10 08:42:14;;;;;;;;;;;;;;;21.90;28.29;98501.84;4935960;29;1970;-77
2022/05/10 08:44:40;;;;;;;;;;;;;;;21.63;28.35;98494.28;4919821;29;2386;-77
2022/05/10 08:47:07;;;;;;;;;;;;;;;21.57;28.45;98487.53;4939045;29;2094;-77
2022/05/10 08:49:39;;;;;;;;;;;;;;;21.50;28.74;98496.13;4929077;29;2108;-77
2022/05/10 08:52:06;;;;;;;;;;;;;;;21.44;28.40;98493.00;4919530;29;2091;-76
2022/05/10 08:54:32;;;;;;;;;;;;;;;21.75;28.29;98490.00;4904566;29;976;-77
2022/05/10 08:57:09;;;;;;;;;;;;;;;22.03;28.04;98485.81;4920526;29;995;-77
2022/05/10 08:59:38;;;;;;;;;;;;;;;21.88;27.97;98479.63;4904899;29;1028;-77
2022/05/10 09:02:06;;;;;;;;;;;;;;;21.79;27.95;98485.88;4920051;29;1922;-77
2022/05/10 09:04:54;;;;;;;;;;;;;;;21.50;28.29;98490.47;4900949;29;953;-76
2022/05/10 09:07:20;;;;;;;;;;;;;;;21.42;28.36;98489.81;4843105;29;2161;-77
2022/05/10 09:09:54;;;;;;;;;;;;;;;21.67;28.35;98489.34;4845261;29;1038;-77
2022/05/10 09:12:21;;;;;;;;;;;;;;;21.92;28.07;98488.06;4842480;29;960;-76
2022/05/10 09:14:56;;;;;;;;;;;;;;;21.99;27.58;98485.09;4863353;29;1183;-77
2022/05/10 09:17:22;;;;;;;;;;;;;;;21.68;28.38;98493.78;4848388;29;1011;-76
2022/05/10 09:19:48;;;;;;;;;;;;;;;21.50;28.43;98487.63;4863745;29;1121;-76
2022/05/10 09:22:19;;;;;;;;;;;;;;;21.38;28.96;98485.44;4864364;29;1911;-77
2022/05/10 09:24:49;;;;;;;;;;;;;;;21.44;28.78;98490.16;4882178;29;932;-76
2022/05/10 09:27:15;;;;;;;;;;;;;;;21.67;28.36;98495.03;4911959;29;1010;-77
2022/05/10 09:29:44;;;;;;;;;;;;;;;22.07;27.83;98489.34;4904023;29;980;-77
2022/05/10 09:35:10;;;;;;;;;;;;;;;22.24;27.14;98482.56;4904484;29;2067;-77
2022/05/10 09:37:47;;;;;;;;;;;;;;;21.74;28.17;98489.22;4926932;29;1001;-77
2022/05/10 09:40:35;;;;;;;;;;;;;;;21.51;28.39;98475.91;4977025;28;1227;-76
2022/05/10 09:43:10;;;;;;;;;;;;;;;21.67;28.14;98489.34;4990585;28;1914;-76
2022/05/10 09:45:36;;;;;;;;;;;;;;;21.61;28.27;98485.44;5007767;28;961;-76
2022/05/10 09:48:07;;;;;;;;;;;;;;;21.47;28.64;98491.34;4996244;28;959;-77
2022/05/10 09:50:35;;;;;;;;;;;;;;;21.47;28.64;98491.34;4982306;28;1893;-77
2022/05/10 09:53:08;;;;;;;;;;;;;;;21.35;29.02;98484.28;4976912;28;1074;-76
2022/05/10 09:55:33;;;;;;;;;;;;;;;21.97;27.77;98487.56;4976341;28;1005;-77
2022/05/10 09:58:10;;;;;;;;;;;;;;;22.18;27.59;98478.66;4969423;28;959;-76
2022/05/10 10:00:40;;;;;;;;;;;;;;;21.90;27.69;98484.84;4957383;28;1018;-76
2022/05/10 10:03:05;;;;;;;;;;;;;;;21.65;28.11;98486.13;4984835;28;1970;-77
2022/05/10 10:05:34;;;;;;;;;;;;;;;21.37;28.43;98487.47;5043446;28;2174;-77
2022/05/10 10:07:59;;;;;;;;;;;;;;;21.47;28.61;98491.34;5038301;28;988;-76
2022/05/10 10:10:25;;;;;;;;;;;;;;;21.36;28.89;98485.09;5051983;28;977;-76
2022/05/10 10:12:50;;;;;;;;;;;;;;;21.65;28.29;98469.16;5037520;28;1116;-76
2022/05/10 10:15:22;;;;;;;;;;;;;;;22.02;27.90;98470.03;5037075;28;2086;-76
2022/05/10 10:17:54;;;;;;;;;;;;;;;21.82;28.01;98473.69;5037452;28;988;-77
2022/05/10 10:20:20;;;;;;;;;;;;;;;21.70;28.35;98471.47;5035423;28;2097;-76
2022/05/10 10:22:46;;;;;;;;;;;;;;;21.61;28.18;98471.28;5037816;28;1906;-77
2022/05/10 10:25:18;;;;;;;;;;;;;;;21.53;28.49;98473.41;5037294;28;969;-77
2022/05/10 10:27:45;;;;;;;;;;;;;;;21.45;28.47;98468.31;5037038;28;927;-76
2022/05/10 10:30:14;;;;;;;;;;;;;;;21.82;28.19;98468.00;5014288;28;1945;-76
2022/05/10 10:32:44;;;;;;;;;;;;;;;22.03;27.65;98460.31;5015163;28;989;-77
2022/05/10 10:35:19;;;;;;;;;;;;;;;21.83;27.77;98466.78;4995646;28;1040;-77
2022/05/10 10:37:48;;;;;;;;;;;;;;;21.83;28.10;98461.09;4995301;28;1005;-77
2022/05/10 10:40:30;;;;;;;;;;;;;;;21.59;28.41;98470.88;4977241;28;2168;-77
2022/05/10 10:42:58;;;;;;;;;;;;;;;21.58;28.28;98469.28;4995068;28;1879;-77
2022/05/10 10:45:29;;;;;;;;;;;;;;;21.40;28.57;98466.81;4994837;28;1007;-76
2022/05/10 10:48:07;;;;;;;;;;;;;;;21.51;28.56;98458.91;4956148;28;967;-76
2022/05/10 10:50:33;;;;;;;;;;;;;;;21.90;27.83;98453.69;4956521;29;996;-76
2022/05/10 10:52:59;;;;;;;;;;;;;;;22.19;27.41;98454.72;4956324;29;922;-76
2022/05/10 10:55:35;;;;;;;;;;;;;;;21.93;27.72;98439.47;4953660;29;2076;-77
2022/05/10 10:58:02;;;;;;;;;;;;;;;21.62;28.39;98453.03;4917846;29;997;-76
2022/05/10 11:00:32;;;;;;;;;;;;;;;21.66;28.14;98442.44;4906080;29;939;-77
2022/05/10 11:03:00;;;;;;;;;;;;;;;21.57;28.20;98448.69;4880305;29;1907;-77
2022/05/10 11:05:44;;;;;;;;;;;;;;;21.30;28.68;98443.13;4888061;29;995;-76
2022/05/10 11:08:28;;;;;;;;;;;;;;;21.50;28.64;98445.16;4916436;29;2174;-77
2022/05/10 11:11:12;;;;;;;;;;;;;;;21.73;28.04;98436.63;4917909;29;973;-76
2022/05/10 11:13:43;;;;;;;;;;;;;;;21.93;27.80;98444.34;4917643;29;1029;-76
2022/05/10 11:16:24;;;;;;;;;;;;;;;21.62;28.19;98441.72;4918060;29;1016;-77
2022/05/10 11:18:56;;;;;;;;;;;;;;;21.50;28.46;98433.84;4917133;29;2206;-76
2022/05/10 11:21:24;;;;;;;;;;;;;;;21.39;28.79;98439.72;4898345;29;1984;-76
2022/05/10 11:23:50;;;;;;;;;;;;;;;21.53;28.49;98433.00;4898839;29;948;-77
2022/05/10 11:26:18;;;;;;;;;;;;;;;21.40;28.52;98434.84;4898638;29;1019;-77
2022/05/10 11:28:46;;;;;;;;;;;;;;;21.35;28.64;98429.69;4920042;28;912;-77
2022/05/10 11:31:11;;;;;;;;;;;;;;;21.66;28.58;98424.63;4955699;28;1007;-77
2022/05/10 11:33:40;;;;;;;;;;;;;;;21.97;27.89;98413.91;4953741;28;2535;-77
2022/05/10 11:36:11;;;;;;;;;;;;;;;22.24;27.21;98425.06;4955779;28;917;-77
2022/05/10 11:38:37;;;;;;;;;;;;;;;21.75;27.93;98417.16;4955936;28;928;-76
2022/05/10 11:41:21;;;;;;;;;;;;;;;21.53;28.41;98411.13;4999721;28;1578;-77
2022/05/10 11:44:17;;;;;;;;;;;;;;;21.45;28.43;98420.19;5013929;28;1961;-77
2022/05/10 11:47:01;;;;;;;;;;;;;;;21.69;28.03;98401.91;4955309;29;955;-77
2022/05/10 11:49:30;;;;;;;;;;;;;;;22.04;27.73;98405.22;4954893;29;2111;-77
2022/05/10 11:51:55;;;;;;;;;;;;;;;21.96;27.37;98403.78;4961803;28;1038;-77
2022/05/10 11:54:53;;;;;;;;;;;;;;;21.64;28.23;98408.09;4975010;28;970;-77
2022/05/10 11:57:19;;;;;;;;;;;;;;;21.37;28.58;98404.59;4936315;29;1024;-77
2022/05/10 11:59:45;;;;;;;;;;;;;;;21.45;28.29;98391.88;4917392;29;1049;-76
2022/05/10 12:02:30;;;;;;;;;;;;;;;21.46;28.21;98387.84;4916366;29;2096;-76
2022/05/10 12:05:12;;;;;;;;;;;;;;;21.45;28.52;98403.19;4917062;29;1271;-77
2022/05/10 12:07:43;;;;;;;;;;;;;;;21.29;28.63;98390.53;4917340;29;995;-77
2022/05/10 12:10:27;;;;;;;;;;;;;;;21.85;27.80;98384.97;4917160;29;945;-77
2022/05/10 12:12:52;;;;;;;;;;;;;;;22.07;27.27;98376.00;4917182;29;1018;-77
2022/05/10 12:21:22;;;;;;;;;;;;;;;21.46;28.24;98370.84;4920771;29;965;-77
2022/05/10 12:24:02;;;;;;;;;;;;;;;21.42;28.39;98364.47;4906009;29;1993;-76
2022/05/10 12:26:43;;;;;;;;;;;;;;;21.60;28.18;98364.88;4902507;29;987;-76
2022/05/10 12:29:27;;;;;;;;;;;;;;;21.94;27.55;98366.59;4920474;29;1016;-77
2022/05/10 12:31:57;;;;;;;;;;;;;;;21.95;27.40;98354.03;4924889;28;959;-77
2022/05/10 12:34:42;;;;;;;;;;;;;;;21.73;27.69;98362.19;4958793;29;962;-77
2022/05/10 12:37:24;;;;;;;;;;;;;;;21.71;28.16;98362.63;4959019;29;1104;-77
2022/05/10 12:39:59;;;;;;;;;;;;;;;21.29;28.49;98353.72;4958966;29;953;-76
2022/05/10 12:42:27;;;;;;;;;;;;;;;21.53;28.19;98359.38;4970661;28;1977;-76
2022/05/10 12:44:58;;;;;;;;;;;;;;;21.63;28.15;98347.03;4951210;29;2208;-77
2022/05/10 12:47:42;;;;;;;;;;;;;;;22.00;27.51;98342.16;4920473;29;959;-77
2022/05/10 12:50:19;;;;;;;;;;;;;;;21.81;27.41;98340.97;4920440;29;988;-77
2022/05/10 12:52:47;;;;;;;;;;;;;;;21.66;28.03;98339.69;4920643;29;964;-77
2022/05/10 12:55:33;;;;;;;;;;;;;;;21.59;27.92;98334.97;4920406;29;1034;-76
2022/05/10 12:58:05;;;;;;;;;;;;;;;21.85;27.69;98336.03;4920342;29;931;-76
2022/05/10 13:00:40;;;;;;;;;;;;;;;22.11;27.14;98337.06;4933074;29;979;-77
2022/05/10 13:03:12;;;;;;;;;;;;;;;21.77;27.59;98335.41;4919832;29;1906;-77
2022/05/10 13:05:40;;;;;;;;;;;;;;;21.49;28.06;98330.31;4958136;28;1571;-77
2022/05/10 13:08:09;;;;;;;;;;;;;;;21.56;28.12;98335.84;4958015;29;1005;-76
2022/05/10 13:10:35;;;;;;;;;;;;;;;21.43;28.29;98332.88;4958200;29;1036;-76
2022/05/10 13:13:02;;;;;;;;;;;;;;;21.95;27.73;98334.97;4943555;28;2106;-76
2022/05/10 13:15:28;;;;;;;;;;;;;;;22.00;27.55;98328.00;4944859;28;972;-77
2022/05/10 13:17:54;;;;;;;;;;;;;;;21.63;27.98;98324.38;4963288;28;1025;-77
2022/05/10 13:20:23;;;;;;;;;;;;;;;21.66;27.71;98323.50;4938515;29;1085;-76
2022/05/10 13:22:50;;;;;;;;;;;;;;;21.44;28.12;98325.19;4938224;29;1977;-76
2022/05/10 13:25:22;;;;;;;;;;;;;;;21.51;28.27;98325.03;4900431;29;1203;-77